sensor_id;sensor_type;location;lat;lon;timestamp;P1;durP1;ratioP1;P2;durP2;ratioP2
836;SDS011;400;53.550;9.932;2023-04-23T00:01:37;8.00;;;7.50;;
836;SDS011;400;53.550;9.932;2023-04-23T00:04:07;8.37;;;7.57;;
836;SDS011;400;53.550;9.932;2023-04-23T00:06:35;8.13;;;7.53;;
836;SDS011;400;53.550;9.932;2023-04-23T00:09:02;9.23;;;8.33;;
836;SDS011;400;53.550;9.932;2023-04-23T00:11:31;7.90;;;7.30;;
836;SDS011;400;53.550;9.932;2023-04-23T00:13:58;8.70;;;7.93;;
836;SDS011;400;53.550;9.932;2023-04-23T00:16:26;8.57;;;7.87;;
836;SDS011;400;53.550;9.932;2023-04-23T00:18:54;9.10;;;8.50;;
836;SDS011;400;53.550;9.932;2023-04-23T00:21:21;8.83;;;8.10;;
836;SDS011;400;53.550;9.932;2023-04-23T00:23:48;9.70;;;8.83;;
836;SDS011;400;53.550;9.932;2023-04-23T00:26:15;9.20;;;8.30;;
836;SDS011;400;53.550;9.932;2023-04-23T00:28:43;9.83;;;9.03;;
836;SDS011;400;53.550;9.932;2023-04-23T00:31:09;9.50;;;8.70;;
836;SDS011;400;53.550;9.932;2023-04-23T00:33:36;9.40;;;8.70;;
836;SDS011;400;53.550;9.932;2023-04-23T00:36:05;8.57;;;7.97;;
836;SDS011;400;53.550;9.932;2023-04-23T00:38:33;8.93;;;8.43;;
836;SDS011;400;53.550;9.932;2023-04-23T00:41:00;10.13;;;9.33;;
836;SDS011;400;53.550;9.932;2023-04-23T00:43:31;10.50;;;9.80;;
836;SDS011;400;53.550;9.932;2023-04-23T00:45:59;10.63;;;9.70;;
836;SDS011;400;53.550;9.932;2023-04-23T00:48:26;11.10;;;10.13;;
836;SDS011;400;53.550;9.932;2023-04-23T00:50:57;10.00;;;9.30;;
836;SDS011;400;53.550;9.932;2023-04-23T00:53:26;11.47;;;10.67;;
836;SDS011;400;53.550;9.932;2023-04-23T00:55:56;12.63;;;11.57;;
836;SDS011;400;53.550;9.932;2023-04-23T00:58:23;11.60;;;10.70;;
836;SDS011;400;53.550;9.932;2023-04-23T01:00:50;11.20;;;10.30;;
836;SDS011;400;53.550;9.932;2023-04-23T01:03:18;11.97;;;11.07;;
836;SDS011;400;53.550;9.932;2023-04-23T01:05:46;12.47;;;11.57;;
836;SDS011;400;53.550;9.932;2023-04-23T01:08:14;12.77;;;11.57;;
836;SDS011;400;53.550;9.932;2023-04-23T01:10:44;13.80;;;12.40;;
836;SDS011;400;53.550;9.932;2023-04-23T01:13:13;13.43;;;12.20;;
836;SDS011;400;53.550;9.932;2023-04-23T01:15:40;13.30;;;12.20;;
836;SDS011;400;53.550;9.932;2023-04-23T01:18:09;14.83;;;13.47;;
836;SDS011;400;53.550;9.932;2023-04-23T01:20:36;13.57;;;12.33;;
836;SDS011;400;53.550;9.932;2023-04-23T01:23:05;12.33;;;11.33;;
836;SDS011;400;53.550;9.932;2023-04-23T01:25:32;13.80;;;12.60;;
836;SDS011;400;53.550;9.932;2023-04-23T01:28:00;14.67;;;13.30;;
836;SDS011;400;53.550;9.932;2023-04-23T01:30:27;13.33;;;12.37;;
836;SDS011;400;53.550;9.932;2023-04-23T01:32:55;13.80;;;12.80;;
836;SDS011;400;53.550;9.932;2023-04-23T01:35:22;12.47;;;11.50;;
836;SDS011;400;53.550;9.932;2023-04-23T01:37:50;12.77;;;11.80;;
836;SDS011;400;53.550;9.932;2023-04-23T01:40:20;13.10;;;12.10;;
836;SDS011;400;53.550;9.932;2023-04-23T01:42:48;14.53;;;12.80;;
836;SDS011;400;53.550;9.932;2023-04-23T01:45:15;12.87;;;11.77;;
836;SDS011;400;53.550;9.932;2023-04-23T01:47:43;12.77;;;11.83;;
836;SDS011;400;53.550;9.932;2023-04-23T01:50:11;13.47;;;12.43;;
836;SDS011;400;53.550;9.932;2023-04-23T01:52:37;13.50;;;12.40;;
836;SDS011;400;53.550;9.932;2023-04-23T01:55:05;10.07;;;9.17;;
836;SDS011;400;53.550;9.932;2023-04-23T01:57:34;10.10;;;9.30;;
836;SDS011;400;53.550;9.932;2023-04-23T02:00:05;11.07;;;10.17;;
836;SDS011;400;53.550;9.932;2023-04-23T02:02:36;14.10;;;12.90;;
836;SDS011;400;53.550;9.932;2023-04-23T02:05:06;14.63;;;13.40;;
836;SDS011;400;53.550;9.932;2023-04-23T02:07:36;17.27;;;15.87;;
836;SDS011;400;53.550;9.932;2023-04-23T02:10:03;17.10;;;15.70;;
836;SDS011;400;53.550;9.932;2023-04-23T02:12:32;19.57;;;17.77;;
836;SDS011;400;53.550;9.932;2023-04-23T02:15:01;19.90;;;18.17;;
836;SDS011;400;53.550;9.932;2023-04-23T02:17:30;23.17;;;20.33;;
836;SDS011;400;53.550;9.932;2023-04-23T02:19:57;21.50;;;19.40;;
836;SDS011;400;53.550;9.932;2023-04-23T02:22:24;24.03;;;21.73;;
836;SDS011;400;53.550;9.932;2023-04-23T02:24:52;24.70;;;22.30;;
836;SDS011;400;53.550;9.932;2023-04-23T02:27:19;28.67;;;25.97;;
836;SDS011;400;53.550;9.932;2023-04-23T02:29:47;28.87;;;26.00;;
836;SDS011;400;53.550;9.932;2023-04-23T02:32:16;29.57;;;26.70;;
836;SDS011;400;53.550;9.932;2023-04-23T02:34:47;27.77;;;23.50;;
836;SDS011;400;53.550;9.932;2023-04-23T02:37:22;26.10;;;23.40;;
836;SDS011;400;53.550;9.932;2023-04-23T02:39:54;27.60;;;24.90;;
836;SDS011;400;53.550;9.932;2023-04-23T02:42:23;25.07;;;22.63;;
836;SDS011;400;53.550;9.932;2023-04-23T02:44:52;22.67;;;20.57;;
836;SDS011;400;53.550;9.932;2023-04-23T02:47:21;24.20;;;21.80;;
836;SDS011;400;53.550;9.932;2023-04-23T02:49:49;22.20;;;20.20;;
836;SDS011;400;53.550;9.932;2023-04-23T02:52:16;20.93;;;18.90;;
836;SDS011;400;53.550;9.932;2023-04-23T02:54:43;20.43;;;18.53;;
836;SDS011;400;53.550;9.932;2023-04-23T02:57:10;20.50;;;18.60;;
836;SDS011;400;53.550;9.932;2023-04-23T02:59:38;21.10;;;19.03;;
836;SDS011;400;53.550;9.932;2023-04-23T03:02:05;21.17;;;19.20;;
836;SDS011;400;53.550;9.932;2023-04-23T03:04:33;22.30;;;20.20;;
836;SDS011;400;53.550;9.932;2023-04-23T03:07:00;20.73;;;18.73;;
836;SDS011;400;53.550;9.932;2023-04-23T03:09:28;18.97;;;17.20;;
836;SDS011;400;53.550;9.932;2023-04-23T03:11:55;19.80;;;18.00;;
836;SDS011;400;53.550;9.932;2023-04-23T03:14:22;20.70;;;18.70;;
836;SDS011;400;53.550;9.932;2023-04-23T03:16:49;20.47;;;18.47;;
836;SDS011;400;53.550;9.932;2023-04-23T03:19:16;19.40;;;17.60;;
836;SDS011;400;53.550;9.932;2023-04-23T03:21:44;20.20;;;18.27;;
836;SDS011;400;53.550;9.932;2023-04-23T03:24:11;20.40;;;18.50;;
836;SDS011;400;53.550;9.932;2023-04-23T03:26:40;18.80;;;16.93;;
836;SDS011;400;53.550;9.932;2023-04-23T03:29:07;19.30;;;17.50;;
836;SDS011;400;53.550;9.932;2023-04-23T03:31:34;19.57;;;17.67;;
836;SDS011;400;53.550;9.932;2023-04-23T03:34:01;17.83;;;16.07;;
836;SDS011;400;53.550;9.932;2023-04-23T03:36:28;18.17;;;16.40;;
836;SDS011;400;53.550;9.932;2023-04-23T03:38:57;18.10;;;16.50;;
836;SDS011;400;53.550;9.932;2023-04-23T03:41:24;17.20;;;15.50;;
836;SDS011;400;53.550;9.932;2023-04-23T03:43:51;16.97;;;15.17;;
836;SDS011;400;53.550;9.932;2023-04-23T03:46:18;17.90;;;16.40;;
836;SDS011;400;53.550;9.932;2023-04-23T03:48:44;17.80;;;15.90;;
836;SDS011;400;53.550;9.932;2023-04-23T03:51:11;17.17;;;15.47;;
836;SDS011;400;53.550;9.932;2023-04-23T03:53:38;16.83;;;15.17;;
836;SDS011;400;53.550;9.932;2023-04-23T03:56:06;16.93;;;15.20;;
836;SDS011;400;53.550;9.932;2023-04-23T03:58:33;16.40;;;14.80;;
836;SDS011;400;53.550;9.932;2023-04-23T04:01:00;13.97;;;12.57;;
836;SDS011;400;53.550;9.932;2023-04-23T04:03:27;14.93;;;13.50;;
836;SDS011;400;53.550;9.932;2023-04-23T04:05:55;14.70;;;13.40;;
836;SDS011;400;53.550;9.932;2023-04-23T04:08:22;14.43;;;13.00;;
836;SDS011;400;53.550;9.932;2023-04-23T04:10:50;13.93;;;12.63;;
836;SDS011;400;53.550;9.932;2023-04-23T04:13:20;15.63;;;14.17;;
836;SDS011;400;53.550;9.932;2023-04-23T04:15:49;14.03;;;12.73;;
836;SDS011;400;53.550;9.932;2023-04-23T04:18:16;13.63;;;12.33;;
836;SDS011;400;53.550;9.932;2023-04-23T04:20:43;13.87;;;12.43;;
836;SDS011;400;53.550;9.932;2023-04-23T04:23:10;13.73;;;12.33;;
836;SDS011;400;53.550;9.932;2023-04-23T04:25:37;13.30;;;12.00;;
836;SDS011;400;53.550;9.932;2023-04-23T04:28:04;11.20;;;10.00;;
836;SDS011;400;53.550;9.932;2023-04-23T04:30:34;12.10;;;11.10;;
836;SDS011;400;53.550;9.932;2023-04-23T04:33:02;11.43;;;10.33;;
836;SDS011;400;53.550;9.932;2023-04-23T04:35:30;11.23;;;10.07;;
836;SDS011;400;53.550;9.932;2023-04-23T04:37:56;10.53;;;9.60;;
836;SDS011;400;53.550;9.932;2023-04-23T04:40:25;10.37;;;9.57;;
836;SDS011;400;53.550;9.932;2023-04-23T04:42:55;10.93;;;9.73;;
836;SDS011;400;53.550;9.932;2023-04-23T04:45:32;9.77;;;8.87;;
836;SDS011;400;53.550;9.932;2023-04-23T04:48:00;9.87;;;9.00;;
836;SDS011;400;53.550;9.932;2023-04-23T04:50:27;8.90;;;8.10;;
836;SDS011;400;53.550;9.932;2023-04-23T04:52:54;9.50;;;8.60;;
836;SDS011;400;53.550;9.932;2023-04-23T04:55:21;8.93;;;8.13;;
836;SDS011;400;53.550;9.932;2023-04-23T04:57:48;11.50;;;9.07;;
836;SDS011;400;53.550;9.932;2023-04-23T05:00:18;9.67;;;8.57;;
836;SDS011;400;53.550;9.932;2023-04-23T05:02:46;8.43;;;7.73;;
836;SDS011;400;53.550;9.932;2023-04-23T05:05:15;8.17;;;7.53;;
836;SDS011;400;53.550;9.932;2023-04-23T05:07:42;8.40;;;7.70;;
836;SDS011;400;53.550;9.932;2023-04-23T05:10:09;8.63;;;7.63;;
836;SDS011;400;53.550;9.932;2023-04-23T05:12:36;8.00;;;7.30;;
836;SDS011;400;53.550;9.932;2023-04-23T05:15:06;10.93;;;7.37;;
836;SDS011;400;53.550;9.932;2023-04-23T05:17:33;7.87;;;7.17;;
836;SDS011;400;53.550;9.932;2023-04-23T05:20:00;7.83;;;7.13;;
836;SDS011;400;53.550;9.932;2023-04-23T05:22:29;8.37;;;7.67;;
836;SDS011;400;53.550;9.932;2023-04-23T05:24:56;10.00;;;9.10;;
836;SDS011;400;53.550;9.932;2023-04-23T05:27:25;11.27;;;8.57;;
836;SDS011;400;53.550;9.932;2023-04-23T05:29:52;8.47;;;7.20;;
836;SDS011;400;53.550;9.932;2023-04-23T05:32:18;7.83;;;7.10;;
836;SDS011;400;53.550;9.932;2023-04-23T05:34:46;8.80;;;7.90;;
836;SDS011;400;53.550;9.932;2023-04-23T05:37:13;8.60;;;7.73;;
836;SDS011;400;53.550;9.932;2023-04-23T05:39:41;8.53;;;7.50;;
836;SDS011;400;53.550;9.932;2023-04-23T05:42:08;8.50;;;7.70;;
836;SDS011;400;53.550;9.932;2023-04-23T05:44:35;9.63;;;8.63;;
836;SDS011;400;53.550;9.932;2023-04-23T05:47:01;8.80;;;7.93;;
836;SDS011;400;53.550;9.932;2023-04-23T05:49:28;8.53;;;7.83;;
836;SDS011;400;53.550;9.932;2023-04-23T05:51:55;9.90;;;8.90;;
836;SDS011;400;53.550;9.932;2023-04-23T05:54:23;8.70;;;7.90;;
836;SDS011;400;53.550;9.932;2023-04-23T05:56:51;11.70;;;7.77;;
836;SDS011;400;53.550;9.932;2023-04-23T05:59:18;10.10;;;9.30;;
836;SDS011;400;53.550;9.932;2023-04-23T06:01:46;10.00;;;9.17;;
836;SDS011;400;53.550;9.932;2023-04-23T06:04:13;10.20;;;9.30;;
836;SDS011;400;53.550;9.932;2023-04-23T06:06:40;10.63;;;9.57;;
836;SDS011;400;53.550;9.932;2023-04-23T06:09:08;10.07;;;9.07;;
836;SDS011;400;53.550;9.932;2023-04-23T06:11:35;10.03;;;9.17;;
836;SDS011;400;53.550;9.932;2023-04-23T06:14:04;10.40;;;8.87;;
836;SDS011;400;53.550;9.932;2023-04-23T06:16:32;7.77;;;6.93;;
836;SDS011;400;53.550;9.932;2023-04-23T06:18:59;9.20;;;8.30;;
836;SDS011;400;53.550;9.932;2023-04-23T06:21:25;7.30;;;6.30;;
836;SDS011;400;53.550;9.932;2023-04-23T06:23:55;6.53;;;5.93;;
836;SDS011;400;53.550;9.932;2023-04-23T06:26:23;7.67;;;5.57;;
836;SDS011;400;53.550;9.932;2023-04-23T06:28:50;6.23;;;5.73;;
836;SDS011;400;53.550;9.932;2023-04-23T06:31:18;6.43;;;5.27;;
836;SDS011;400;53.550;9.932;2023-04-23T06:33:45;5.43;;;4.93;;
836;SDS011;400;53.550;9.932;2023-04-23T06:36:12;5.43;;;4.93;;
836;SDS011;400;53.550;9.932;2023-04-23T06:38:39;5.77;;;5.03;;
836;SDS011;400;53.550;9.932;2023-04-23T06:41:05;6.17;;;5.67;;
836;SDS011;400;53.550;9.932;2023-04-23T06:43:33;5.83;;;4.60;;
836;SDS011;400;53.550;9.932;2023-04-23T06:46:00;6.67;;;5.97;;
836;SDS011;400;53.550;9.932;2023-04-23T06:48:29;6.40;;;5.80;;
836;SDS011;400;53.550;9.932;2023-04-23T06:50:56;7.17;;;6.30;;
836;SDS011;400;53.550;9.932;2023-04-23T06:53:23;12.50;;;11.17;;
836;SDS011;400;53.550;9.932;2023-04-23T06:55:50;17.87;;;16.03;;
836;SDS011;400;53.550;9.932;2023-04-23T06:58:17;7.30;;;6.60;;
836;SDS011;400;53.550;9.932;2023-04-23T07:00:44;6.57;;;6.00;;
836;SDS011;400;53.550;9.932;2023-04-23T07:03:11;6.50;;;5.90;;
836;SDS011;400;53.550;9.932;2023-04-23T07:05:39;5.23;;;4.83;;
836;SDS011;400;53.550;9.932;2023-04-23T07:08:07;7.60;;;6.00;;
836;SDS011;400;53.550;9.932;2023-04-23T07:10:37;5.53;;;5.03;;
836;SDS011;400;53.550;9.932;2023-04-23T07:13:04;5.83;;;5.33;;
836;SDS011;400;53.550;9.932;2023-04-23T07:15:30;8.53;;;6.63;;
836;SDS011;400;53.550;9.932;2023-04-23T07:17:57;6.30;;;5.70;;
836;SDS011;400;53.550;9.932;2023-04-23T07:20:25;7.33;;;6.10;;
836;SDS011;400;53.550;9.932;2023-04-23T07:22:53;7.33;;;6.73;;
836;SDS011;400;53.550;9.932;2023-04-23T07:25:20;6.53;;;5.93;;
836;SDS011;400;53.550;9.932;2023-04-23T07:27:48;7.77;;;6.97;;
836;SDS011;400;53.550;9.932;2023-04-23T07:30:15;6.87;;;6.27;;
836;SDS011;400;53.550;9.932;2023-04-23T07:32:42;7.50;;;6.57;;
836;SDS011;400;53.550;9.932;2023-04-23T07:35:09;8.90;;;6.30;;
836;SDS011;400;53.550;9.932;2023-04-23T07:37:37;10.03;;;7.27;;
836;SDS011;400;53.550;9.932;2023-04-23T07:40:06;6.93;;;6.33;;
836;SDS011;400;53.550;9.932;2023-04-23T07:42:33;7.23;;;6.53;;
836;SDS011;400;53.550;9.932;2023-04-23T07:45:00;7.00;;;5.77;;
836;SDS011;400;53.550;9.932;2023-04-23T07:47:28;7.17;;;6.37;;
836;SDS011;400;53.550;9.932;2023-04-23T07:49:54;6.40;;;5.90;;
836;SDS011;400;53.550;9.932;2023-04-23T07:52:21;7.50;;;6.50;;
836;SDS011;400;53.550;9.932;2023-04-23T07:54:48;6.53;;;5.20;;
836;SDS011;400;53.550;9.932;2023-04-23T07:57:17;6.40;;;5.90;;
836;SDS011;400;53.550;9.932;2023-04-23T07:59:44;8.37;;;7.50;;
836;SDS011;400;53.550;9.932;2023-04-23T08:02:10;7.10;;;6.50;;
836;SDS011;400;53.550;9.932;2023-04-23T08:04:37;6.40;;;5.73;;
836;SDS011;400;53.550;9.932;2023-04-23T08:07:04;6.87;;;5.80;;
836;SDS011;400;53.550;9.932;2023-04-23T08:09:31;7.43;;;6.80;;
836;SDS011;400;53.550;9.932;2023-04-23T08:11:57;9.57;;;6.67;;
836;SDS011;400;53.550;9.932;2023-04-23T08:14:29;7.10;;;6.50;;
836;SDS011;400;53.550;9.932;2023-04-23T08:16:59;6.97;;;6.47;;
836;SDS011;400;53.550;9.932;2023-04-23T08:19:28;7.30;;;6.60;;
836;SDS011;400;53.550;9.932;2023-04-23T08:21:57;7.27;;;6.67;;
836;SDS011;400;53.550;9.932;2023-04-23T08:24:25;6.53;;;6.03;;
836;SDS011;400;53.550;9.932;2023-04-23T08:26:52;6.63;;;5.93;;
836;SDS011;400;53.550;9.932;2023-04-23T08:29:19;6.90;;;6.30;;
836;SDS011;400;53.550;9.932;2023-04-23T08:31:47;7.80;;;7.10;;
836;SDS011;400;53.550;9.932;2023-04-23T08:34:16;7.27;;;6.67;;
836;SDS011;400;53.550;9.932;2023-04-23T08:36:44;7.00;;;6.40;;
836;SDS011;400;53.550;9.932;2023-04-23T08:39:12;7.37;;;6.57;;
836;SDS011;400;53.550;9.932;2023-04-23T08:41:40;6.47;;;5.97;;
836;SDS011;400;53.550;9.932;2023-04-23T08:44:11;6.83;;;6.23;;
836;SDS011;400;53.550;9.932;2023-04-23T08:46:44;7.70;;;6.90;;
836;SDS011;400;53.550;9.932;2023-04-23T08:49:13;6.73;;;6.13;;
836;SDS011;400;53.550;9.932;2023-04-23T08:51:42;8.17;;;6.70;;
836;SDS011;400;53.550;9.932;2023-04-23T08:54:14;8.20;;;7.60;;
836;SDS011;400;53.550;9.932;2023-04-23T08:56:46;7.90;;;7.10;;
836;SDS011;400;53.550;9.932;2023-04-23T08:59:15;7.40;;;6.57;;
836;SDS011;400;53.550;9.932;2023-04-23T09:01:45;7.10;;;6.50;;
836;SDS011;400;53.550;9.932;2023-04-23T09:04:13;6.70;;;6.20;;
836;SDS011;400;53.550;9.932;2023-04-23T09:06:45;8.90;;;6.13;;
836;SDS011;400;53.550;9.932;2023-04-23T09:09:12;8.07;;;7.27;;
836;SDS011;400;53.550;9.932;2023-04-23T09:11:42;7.37;;;6.73;;
836;SDS011;400;53.550;9.932;2023-04-23T09:14:10;6.97;;;6.33;;
836;SDS011;400;53.550;9.932;2023-04-23T09:16:40;7.60;;;6.90;;
836;SDS011;400;53.550;9.932;2023-04-23T09:19:13;8.50;;;7.60;;
836;SDS011;400;53.550;9.932;2023-04-23T09:21:41;8.53;;;7.83;;
836;SDS011;400;53.550;9.932;2023-04-23T09:24:12;9.90;;;9.00;;
836;SDS011;400;53.550;9.932;2023-04-23T09:26:43;40.70;;;36.30;;
836;SDS011;400;53.550;9.932;2023-04-23T09:29:14;8.27;;;7.67;;
836;SDS011;400;53.550;9.932;2023-04-23T09:31:43;8.53;;;7.60;;
836;SDS011;400;53.550;9.932;2023-04-23T09:34:12;8.40;;;7.67;;
836;SDS011;400;53.550;9.932;2023-04-23T09:36:44;9.13;;;8.30;;
836;SDS011;400;53.550;9.932;2023-04-23T09:39:16;8.10;;;7.40;;
836;SDS011;400;53.550;9.932;2023-04-23T09:41:44;8.37;;;7.67;;
836;SDS011;400;53.550;9.932;2023-04-23T09:44:11;7.73;;;7.13;;
836;SDS011;400;53.550;9.932;2023-04-23T09:46:43;8.87;;;8.07;;
836;SDS011;400;53.550;9.932;2023-04-23T09:49:10;7.83;;;7.13;;
836;SDS011;400;53.550;9.932;2023-04-23T09:51:40;9.37;;;8.53;;
836;SDS011;400;53.550;9.932;2023-04-23T09:54:11;8.90;;;8.20;;
836;SDS011;400;53.550;9.932;2023-04-23T09:56:40;8.87;;;8.10;;
836;SDS011;400;53.550;9.932;2023-04-23T09:59:18;10.90;;;9.27;;
836;SDS011;400;53.550;9.932;2023-04-23T10:01:46;9.23;;;8.43;;
836;SDS011;400;53.550;9.932;2023-04-23T10:06:46;10.80;;;9.80;;
836;SDS011;400;53.550;9.932;2023-04-23T10:09:14;11.33;;;10.23;;
836;SDS011;400;53.550;9.932;2023-04-23T10:11:41;10.80;;;9.80;;
836;SDS011;400;53.550;9.932;2023-04-23T10:14:08;11.80;;;10.77;;
836;SDS011;400;53.550;9.932;2023-04-23T10:16:36;12.00;;;11.00;;
836;SDS011;400;53.550;9.932;2023-04-23T10:19:04;12.57;;;11.40;;
836;SDS011;400;53.550;9.932;2023-04-23T10:21:35;12.03;;;10.97;;
836;SDS011;400;53.550;9.932;2023-04-23T10:24:04;13.00;;;12.00;;
836;SDS011;400;53.550;9.932;2023-04-23T10:26:32;13.13;;;11.93;;
836;SDS011;400;53.550;9.932;2023-04-23T10:29:01;13.40;;;12.20;;
836;SDS011;400;53.550;9.932;2023-04-23T10:31:32;12.80;;;11.63;;
836;SDS011;400;53.550;9.932;2023-04-23T10:34:00;14.40;;;13.00;;
836;SDS011;400;53.550;9.932;2023-04-23T10:36:30;13.03;;;11.93;;
836;SDS011;400;53.550;9.932;2023-04-23T10:38:58;13.77;;;12.57;;
836;SDS011;400;53.550;9.932;2023-04-23T10:41:32;12.77;;;11.77;;
836;SDS011;400;53.550;9.932;2023-04-23T10:44:01;12.87;;;11.77;;
836;SDS011;400;53.550;9.932;2023-04-23T10:46:29;13.33;;;12.33;;
836;SDS011;400;53.550;9.932;2023-04-23T10:49:06;14.20;;;12.90;;
836;SDS011;400;53.550;9.932;2023-04-23T10:51:38;12.90;;;11.80;;
836;SDS011;400;53.550;9.932;2023-04-23T10:54:08;13.13;;;11.93;;
836;SDS011;400;53.550;9.932;2023-04-23T10:56:46;15.60;;;14.20;;
836;SDS011;400;53.550;9.932;2023-04-23T10:59:28;13.80;;;12.60;;
836;SDS011;400;53.550;9.932;2023-04-23T11:02:00;14.23;;;13.03;;
836;SDS011;400;53.550;9.932;2023-04-23T11:04:32;13.67;;;12.47;;
836;SDS011;400;53.550;9.932;2023-04-23T11:07:03;15.37;;;13.87;;
836;SDS011;400;53.550;9.932;2023-04-23T11:09:36;14.50;;;13.30;;
836;SDS011;400;53.550;9.932;2023-04-23T11:12:11;13.97;;;12.87;;
836;SDS011;400;53.550;9.932;2023-04-23T11:15:08;12.57;;;11.47;;
836;SDS011;400;53.550;9.932;2023-04-23T11:20:25;11.97;;;10.87;;
836;SDS011;400;53.550;9.932;2023-04-23T11:22:52;9.93;;;9.03;;
836;SDS011;400;53.550;9.932;2023-04-23T11:25:20;9.87;;;9.07;;
836;SDS011;400;53.550;9.932;2023-04-23T11:27:50;9.80;;;9.00;;
836;SDS011;400;53.550;9.932;2023-04-23T11:30:19;11.27;;;10.20;;
836;SDS011;400;53.550;9.932;2023-04-23T11:32:48;8.53;;;7.93;;
836;SDS011;400;53.550;9.932;2023-04-23T11:35:17;9.40;;;8.60;;
836;SDS011;400;53.550;9.932;2023-04-23T11:37:45;8.77;;;8.07;;
836;SDS011;400;53.550;9.932;2023-04-23T11:40:14;9.00;;;8.23;;
836;SDS011;400;53.550;9.932;2023-04-23T11:42:47;9.23;;;8.43;;
836;SDS011;400;53.550;9.932;2023-04-23T11:45:19;7.73;;;7.13;;
836;SDS011;400;53.550;9.932;2023-04-23T11:47:48;8.10;;;7.50;;
836;SDS011;400;53.550;9.932;2023-04-23T11:50:20;8.47;;;7.87;;
836;SDS011;400;53.550;9.932;2023-04-23T11:52:48;8.73;;;7.93;;
836;SDS011;400;53.550;9.932;2023-04-23T11:55:16;7.30;;;6.70;;
836;SDS011;400;53.550;9.932;2023-04-23T11:57:44;7.40;;;6.80;;
836;SDS011;400;53.550;9.932;2023-04-23T12:00:15;7.70;;;7.00;;
836;SDS011;400;53.550;9.932;2023-04-23T12:02:52;8.03;;;7.37;;
836;SDS011;400;53.550;9.932;2023-04-23T12:05:21;7.20;;;6.60;;
836;SDS011;400;53.550;9.932;2023-04-23T12:08:08;8.07;;;7.47;;
836;SDS011;400;53.550;9.932;2023-04-23T12:10:43;6.10;;;5.70;;
836;SDS011;400;53.550;9.932;2023-04-23T12:13:16;7.77;;;7.07;;
836;SDS011;400;53.550;9.932;2023-04-23T12:15:47;7.40;;;6.80;;
836;SDS011;400;53.550;9.932;2023-04-23T12:18:15;8.63;;;7.50;;
836;SDS011;400;53.550;9.932;2023-04-23T12:20:42;7.00;;;6.40;;
836;SDS011;400;53.550;9.932;2023-04-23T12:23:10;7.47;;;6.57;;
836;SDS011;400;53.550;9.932;2023-04-23T12:25:38;7.00;;;6.30;;
836;SDS011;400;53.550;9.932;2023-04-23T12:28:13;7.00;;;6.40;;
836;SDS011;400;53.550;9.932;2023-04-23T12:30:57;7.40;;;6.70;;
836;SDS011;400;53.550;9.932;2023-04-23T12:33:28;6.70;;;6.20;;
836;SDS011;400;53.550;9.932;2023-04-23T12:36:09;5.30;;;4.90;;
836;SDS011;400;53.550;9.932;2023-04-23T12:38:44;6.10;;;4.93;;
836;SDS011;400;53.550;9.932;2023-04-23T12:41:11;5.60;;;5.13;;
836;SDS011;400;53.550;9.932;2023-04-23T12:43:38;5.90;;;4.93;;
836;SDS011;400;53.550;9.932;2023-04-23T12:46:06;4.70;;;4.30;;
836;SDS011;400;53.550;9.932;2023-04-23T12:48:33;4.43;;;4.17;;
836;SDS011;400;53.550;9.932;2023-04-23T12:51:02;5.27;;;4.77;;
836;SDS011;400;53.550;9.932;2023-04-23T12:53:35;5.00;;;4.70;;
836;SDS011;400;53.550;9.932;2023-04-23T12:56:02;4.60;;;4.20;;
836;SDS011;400;53.550;9.932;2023-04-23T12:58:29;4.70;;;4.10;;
836;SDS011;400;53.550;9.932;2023-04-23T13:00:56;3.80;;;3.40;;
836;SDS011;400;53.550;9.932;2023-04-23T13:03:25;3.97;;;3.67;;
836;SDS011;400;53.550;9.932;2023-04-23T13:05:55;4.17;;;3.87;;
836;SDS011;400;53.550;9.932;2023-04-23T13:08:22;6.60;;;3.80;;
836;SDS011;400;53.550;9.932;2023-04-23T13:10:49;3.70;;;3.40;;
836;SDS011;400;53.550;9.932;2023-04-23T13:13:20;6.07;;;4.80;;
836;SDS011;400;53.550;9.932;2023-04-23T13:15:48;4.20;;;3.90;;
836;SDS011;400;53.550;9.932;2023-04-23T13:18:17;4.00;;;3.70;;
836;SDS011;400;53.550;9.932;2023-04-23T13:20:48;4.77;;;4.23;;
836;SDS011;400;53.550;9.932;2023-04-23T13:23:15;3.80;;;3.50;;
836;SDS011;400;53.550;9.932;2023-04-23T13:25:43;4.90;;;4.10;;
836;SDS011;400;53.550;9.932;2023-04-23T13:28:10;3.97;;;3.67;;
836;SDS011;400;53.550;9.932;2023-04-23T13:30:37;4.03;;;3.73;;
836;SDS011;400;53.550;9.932;2023-04-23T13:33:04;4.60;;;4.30;;
836;SDS011;400;53.550;9.932;2023-04-23T13:35:31;3.50;;;3.30;;
836;SDS011;400;53.550;9.932;2023-04-23T13:38:03;5.67;;;3.90;;
836;SDS011;400;53.550;9.932;2023-04-23T13:40:30;3.73;;;3.43;;
836;SDS011;400;53.550;9.932;2023-04-23T13:42:59;4.60;;;4.30;;
836;SDS011;400;53.550;9.932;2023-04-23T13:45:26;5.83;;;5.30;;
836;SDS011;400;53.550;9.932;2023-04-23T13:47:53;4.20;;;3.90;;
836;SDS011;400;53.550;9.932;2023-04-23T13:50:21;4.57;;;4.23;;
836;SDS011;400;53.550;9.932;2023-04-23T13:52:48;5.83;;;3.90;;
836;SDS011;400;53.550;9.932;2023-04-23T13:55:17;4.63;;;4.00;;
836;SDS011;400;53.550;9.932;2023-04-23T13:57:53;4.13;;;3.83;;
836;SDS011;400;53.550;9.932;2023-04-23T14:00:25;4.30;;;3.90;;
836;SDS011;400;53.550;9.932;2023-04-23T14:02:54;4.10;;;3.80;;
836;SDS011;400;53.550;9.932;2023-04-23T14:05:24;5.10;;;4.70;;
836;SDS011;400;53.550;9.932;2023-04-23T14:07:54;4.37;;;3.97;;
836;SDS011;400;53.550;9.932;2023-04-23T14:10:28;4.47;;;4.07;;
836;SDS011;400;53.550;9.932;2023-04-23T14:12:59;4.00;;;3.60;;
836;SDS011;400;53.550;9.932;2023-04-23T14:15:30;3.90;;;3.50;;
836;SDS011;400;53.550;9.932;2023-04-23T14:17:57;4.03;;;3.73;;
836;SDS011;400;53.550;9.932;2023-04-23T14:20:24;3.47;;;3.27;;
836;SDS011;400;53.550;9.932;2023-04-23T14:22:54;5.90;;;5.40;;
836;SDS011;400;53.550;9.932;2023-04-23T14:25:23;16.93;;;15.50;;
836;SDS011;400;53.550;9.932;2023-04-23T14:27:57;9.95;;;8.75;;
836;SDS011;400;53.550;9.932;2023-04-23T14:30:48;20.00;;;17.93;;
836;SDS011;400;53.550;9.932;2023-04-23T14:33:21;17.47;;;15.77;;
836;SDS011;400;53.550;9.932;2023-04-23T14:35:48;7.73;;;6.93;;
836;SDS011;400;53.550;9.932;2023-04-23T14:38:16;15.00;;;13.60;;
836;SDS011;400;53.550;9.932;2023-04-23T14:40:44;15.07;;;13.80;;
836;SDS011;400;53.550;9.932;2023-04-23T14:43:14;11.40;;;10.30;;
836;SDS011;400;53.550;9.932;2023-04-23T14:45:41;4.80;;;4.37;;
836;SDS011;400;53.550;9.932;2023-04-23T14:48:13;5.17;;;4.07;;
836;SDS011;400;53.550;9.932;2023-04-23T14:50:41;7.23;;;6.53;;
836;SDS011;400;53.550;9.932;2023-04-23T14:53:09;7.40;;;6.80;;
836;SDS011;400;53.550;9.932;2023-04-23T14:55:36;11.07;;;10.07;;
836;SDS011;400;53.550;9.932;2023-04-23T14:58:03;5.97;;;5.50;;
836;SDS011;400;53.550;9.932;2023-04-23T15:00:30;6.03;;;5.53;;
836;SDS011;400;53.550;9.932;2023-04-23T15:02:57;5.10;;;4.70;;
836;SDS011;400;53.550;9.932;2023-04-23T15:05:27;7.70;;;7.00;;
836;SDS011;400;53.550;9.932;2023-04-23T15:07:54;4.47;;;3.93;;
836;SDS011;400;53.550;9.932;2023-04-23T15:10:20;3.40;;;3.10;;
836;SDS011;400;53.550;9.932;2023-04-23T15:12:48;4.93;;;4.53;;
836;SDS011;400;53.550;9.932;2023-04-23T15:15:25;3.53;;;3.03;;
836;SDS011;400;53.550;9.932;2023-04-23T15:17:59;3.10;;;2.80;;
836;SDS011;400;53.550;9.932;2023-04-23T15:20:28;3.40;;;3.20;;
836;SDS011;400;53.550;9.932;2023-04-23T15:22:55;2.00;;;1.90;;
836;SDS011;400;53.550;9.932;2023-04-23T15:25:22;3.00;;;2.70;;
836;SDS011;400;53.550;9.932;2023-04-23T15:27:49;7.43;;;6.70;;
836;SDS011;400;53.550;9.932;2023-04-23T15:30:21;9.73;;;8.73;;
836;SDS011;400;53.550;9.932;2023-04-23T15:32:49;5.93;;;4.57;;
836;SDS011;400;53.550;9.932;2023-04-23T15:35:16;2.90;;;2.80;;
836;SDS011;400;53.550;9.932;2023-04-23T15:37:46;2.80;;;2.60;;
836;SDS011;400;53.550;9.932;2023-04-23T15:40:16;3.73;;;3.43;;
836;SDS011;400;53.550;9.932;2023-04-23T15:42:43;2.80;;;2.60;;
836;SDS011;400;53.550;9.932;2023-04-23T15:45:11;2.73;;;2.53;;
836;SDS011;400;53.550;9.932;2023-04-23T15:47:39;4.80;;;4.30;;
836;SDS011;400;53.550;9.932;2023-04-23T15:50:10;4.67;;;4.10;;